sensor_id;sensor_type;location;lat;lon;timestamp;temperature;humidity
23411;DHT22;11878;51.774;7.220;2023-07-20T00:02:05;15.70;99.90
23411;DHT22;11878;51.774;7.220;2023-07-20T00:05:09;15.70;99.90
23411;DHT22;11878;51.774;7.220;2023-07-20T00:08:10;15.70;99.90
23411;DHT22;11878;51.774;7.220;2023-07-20T00:11:12;15.70;99.90
23411;DHT22;11878;51.774;7.220;2023-07-20T00:14:15;15.90;99.90
23411;DHT22;11878;51.774;7.220;2023-07-20T00:17:16;15.80;99.90
23411;DHT22;11878;51.774;7.220;2023-07-20T00:20:18;15.90;99.90
23411;DHT22;11878;51.774;7.220;2023-07-20T00:23:20;15.80;99.90
23411;DHT22;11878;51.774;7.220;2023-07-20T00:26:24;15.80;99.90
23411;DHT22;11878;51.774;7.220;2023-07-20T00:29:26;15.70;99.90
23411;DHT22;11878;51.774;7.220;2023-07-20T00:32:28;15.70;99.90
23411;DHT22;11878;51.774;7.220;2023-07-20T00:35:31;15.90;99.90
23411;DHT22;11878;51.774;7.220;2023-07-20T00:38:34;15.90;99.90
23411;DHT22;11878;51.774;7.220;2023-07-20T00:41:35;15.80;99.90
23411;DHT22;11878;51.774;7.220;2023-07-20T00:44:37;15.80;99.90
23411;DHT22;11878;51.774;7.220;2023-07-20T00:47:41;15.80;99.90
23411;DHT22;11878;51.774;7.220;2023-07-20T00:50:43;15.80;99.90
23411;DHT22;11878;51.774;7.220;2023-07-20T00:53:45;15.80;99.90
23411;DHT22;11878;51.774;7.220;2023-07-20T00:56:50;15.80;99.90
23411;DHT22;11878;51.774;7.220;2023-07-20T00:59:53;15.70;99.90
23411;DHT22;11878;51.774;7.220;2023-07-20T01:02:55;15.70;99.90
23411;DHT22;11878;51.774;7.220;2023-07-20T01:09:39;15.70;99.90
23411;DHT22;11878;51.774;7.220;2023-07-20T01:12:43;15.80;99.90
23411;DHT22;11878;51.774;7.220;2023-07-20T01:15:56;15.70;99.90
23411;DHT22;11878;51.774;7.220;2023-07-20T01:19:00;15.70;99.90
23411;DHT22;11878;51.774;7.220;2023-07-20T01:22:24;15.70;99.90
23411;DHT22;11878;51.774;7.220;2023-07-20T01:31:59;15.70;99.90
23411;DHT22;11878;51.774;7.220;2023-07-20T01:35:06;15.70;99.90
23411;DHT22;11878;51.774;7.220;2023-07-20T01:38:10;15.60;99.90
23411;DHT22;11878;51.774;7.220;2023-07-20T01:41:13;15.70;99.90
23411;DHT22;11878;51.774;7.220;2023-07-20T01:44:15;15.60;99.90
23411;DHT22;11878;51.774;7.220;2023-07-20T01:47:17;15.70;99.90
23411;DHT22;11878;51.774;7.220;2023-07-20T01:50:19;15.70;99.90
23411;DHT22;11878;51.774;7.220;2023-07-20T01:53:22;15.60;99.90
23411;DHT22;11878;51.774;7.220;2023-07-20T01:56:24;15.60;99.90
23411;DHT22;11878;51.774;7.220;2023-07-20T01:59:26;15.70;99.90
23411;DHT22;11878;51.774;7.220;2023-07-20T02:02:28;15.70;99.90
23411;DHT22;11878;51.774;7.220;2023-07-20T02:05:30;15.60;99.90
23411;DHT22;11878;51.774;7.220;2023-07-20T02:08:32;15.60;99.90
23411;DHT22;11878;51.774;7.220;2023-07-20T02:11:33;15.60;99.90
23411;DHT22;11878;51.774;7.220;2023-07-20T02:14:35;15.60;99.90
23411;DHT22;11878;51.774;7.220;2023-07-20T02:17:37;15.60;99.90
23411;DHT22;11878;51.774;7.220;2023-07-20T02:20:41;15.60;99.90
23411;DHT22;11878;51.774;7.220;2023-07-20T02:23:43;15.60;99.90
23411;DHT22;11878;51.774;7.220;2023-07-20T02:26:45;15.60;99.90
23411;DHT22;11878;51.774;7.220;2023-07-20T02:29:46;15.60;99.90
23411;DHT22;11878;51.774;7.220;2023-07-20T02:32:48;15.70;99.90
23411;DHT22;11878;51.774;7.220;2023-07-20T02:35:50;15.60;99.90
23411;DHT22;11878;51.774;7.220;2023-07-20T02:38:52;15.60;99.90
23411;DHT22;11878;51.774;7.220;2023-07-20T02:41:54;15.50;99.90
23411;DHT22;11878;51.774;7.220;2023-07-20T02:44:56;15.50;99.90
23411;DHT22;11878;51.774;7.220;2023-07-20T02:47:58;15.60;99.90
23411;DHT22;11878;51.774;7.220;2023-07-20T02:51:00;15.60;99.90
23411;DHT22;11878;51.774;7.220;2023-07-20T02:54:01;15.50;99.90
23411;DHT22;11878;51.774;7.220;2023-07-20T02:57:04;15.50;99.90
23411;DHT22;11878;51.774;7.220;2023-07-20T03:00:06;15.50;99.90
23411;DHT22;11878;51.774;7.220;2023-07-20T03:03:08;15.50;99.90
23411;DHT22;11878;51.774;7.220;2023-07-20T03:06:14;15.40;99.90
23411;DHT22;11878;51.774;7.220;2023-07-20T03:09:16;15.50;99.90
23411;DHT22;11878;51.774;7.220;2023-07-20T03:12:18;15.50;99.90
23411;DHT22;11878;51.774;7.220;2023-07-20T03:15:20;15.40;99.90
23411;DHT22;11878;51.774;7.220;2023-07-20T03:18:22;15.40;99.90
23411;DHT22;11878;51.774;7.220;2023-07-20T03:21:24;15.40;99.90
23411;DHT22;11878;51.774;7.220;2023-07-20T03:24:26;15.40;99.90
23411;DHT22;11878;51.774;7.220;2023-07-20T03:27:28;15.50;99.90
23411;DHT22;11878;51.774;7.220;2023-07-20T03:30:32;15.40;99.90
23411;DHT22;11878;51.774;7.220;2023-07-20T03:33:34;15.40;99.90
23411;DHT22;11878;51.774;7.220;2023-07-20T03:36:36;15.50;99.90
23411;DHT22;11878;51.774;7.220;2023-07-20T03:39:38;15.40;99.90
23411;DHT22;11878;51.774;7.220;2023-07-20T03:42:40;15.40;99.90
23411;DHT22;11878;51.774;7.220;2023-07-20T03:45:42;15.40;99.90
23411;DHT22;11878;51.774;7.220;2023-07-20T03:48:43;15.50;99.90
23411;DHT22;11878;51.774;7.220;2023-07-20T03:51:45;15.30;99.90
23411;DHT22;11878;51.774;7.220;2023-07-20T03:54:47;15.40;99.90
23411;DHT22;11878;51.774;7.220;2023-07-20T03:57:49;15.40;99.90
23411;DHT22;11878;51.774;7.220;2023-07-20T04:00:52;15.40;99.90
23411;DHT22;11878;51.774;7.220;2023-07-20T04:03:54;15.40;99.90
23411;DHT22;11878;51.774;7.220;2023-07-20T04:06:57;15.40;99.90
23411;DHT22;11878;51.774;7.220;2023-07-20T04:09:58;15.40;99.90
23411;DHT22;11878;51.774;7.220;2023-07-20T04:13:01;15.30;99.90
23411;DHT22;11878;51.774;7.220;2023-07-20T04:16:02;15.30;99.90
23411;DHT22;11878;51.774;7.220;2023-07-20T04:19:04;15.20;99.90
23411;DHT22;11878;51.774;7.220;2023-07-20T04:22:06;15.10;99.90
23411;DHT22;11878;51.774;7.220;2023-07-20T04:25:08;15.10;99.90
23411;DHT22;11878;51.774;7.220;2023-07-20T04:28:11;15.20;99.90
23411;DHT22;11878;51.774;7.220;2023-07-20T04:31:18;15.30;99.90
23411;DHT22;11878;51.774;7.220;2023-07-20T04:34:20;15.20;99.90
23411;DHT22;11878;51.774;7.220;2023-07-20T04:37:23;15.20;99.90
23411;DHT22;11878;51.774;7.220;2023-07-20T04:40:25;15.10;99.90
23411;DHT22;11878;51.774;7.220;2023-07-20T04:43:29;15.20;99.90
23411;DHT22;11878;51.774;7.220;2023-07-20T04:46:31;15.20;99.90
23411;DHT22;11878;51.774;7.220;2023-07-20T04:49:35;15.20;99.90
23411;DHT22;11878;51.774;7.220;2023-07-20T04:52:37;15.20;99.90
23411;DHT22;11878;51.774;7.220;2023-07-20T04:55:50;15.30;99.90
23411;DHT22;11878;51.774;7.220;2023-07-20T04:58:54;15.30;99.90
23411;DHT22;11878;51.774;7.220;2023-07-20T05:01:56;15.30;99.90
23411;DHT22;11878;51.774;7.220;2023-07-20T05:04:58;15.40;99.90
23411;DHT22;11878;51.774;7.220;2023-07-20T05:08:00;15.40;99.90
23411;DHT22;11878;51.774;7.220;2023-07-20T05:11:02;15.50;99.90
23411;DHT22;11878;51.774;7.220;2023-07-20T05:14:04;15.40;99.90
23411;DHT22;11878;51.774;7.220;2023-07-20T05:17:06;15.40;99.90
23411;DHT22;11878;51.774;7.220;2023-07-20T05:20:08;15.40;99.90
23411;DHT22;11878;51.774;7.220;2023-07-20T05:23:17;15.40;99.90
23411;DHT22;11878;51.774;7.220;2023-07-20T05:26:19;15.40;99.90
23411;DHT22;11878;51.774;7.220;2023-07-20T05:29:20;15.40;99.90
23411;DHT22;11878;51.774;7.220;2023-07-20T05:32:22;15.40;99.90
23411;DHT22;11878;51.774;7.220;2023-07-20T05:35:25;15.40;99.90
23411;DHT22;11878;51.774;7.220;2023-07-20T05:38:27;15.40;99.90
23411;DHT22;11878;51.774;7.220;2023-07-20T05:41:29;15.40;99.90
23411;DHT22;11878;51.774;7.220;2023-07-20T05:44:31;15.30;99.90
23411;DHT22;11878;51.774;7.220;2023-07-20T05:47:33;15.40;99.90
23411;DHT22;11878;51.774;7.220;2023-07-20T05:50:34;15.40;99.90
23411;DHT22;11878;51.774;7.220;2023-07-20T05:53:36;15.40;99.90
23411;DHT22;11878;51.774;7.220;2023-07-20T05:56:39;15.60;99.90
23411;DHT22;11878;51.774;7.220;2023-07-20T05:59:41;15.50;99.90
23411;DHT22;11878;51.774;7.220;2023-07-20T06:02:45;15.50;99.90
23411;DHT22;11878;51.774;7.220;2023-07-20T06:05:49;15.50;99.90
23411;DHT22;11878;51.774;7.220;2023-07-20T06:08:51;15.40;99.90
23411;DHT22;11878;51.774;7.220;2023-07-20T06:11:53;15.50;99.90
23411;DHT22;11878;51.774;7.220;2023-07-20T06:14:56;15.40;99.90
23411;DHT22;11878;51.774;7.220;2023-07-20T06:17:57;15.40;99.90
23411;DHT22;11878;51.774;7.220;2023-07-20T06:21:00;15.50;99.90
23411;DHT22;11878;51.774;7.220;2023-07-20T06:24:02;15.50;99.90
23411;DHT22;11878;51.774;7.220;2023-07-20T06:27:04;15.40;99.90
23411;DHT22;11878;51.774;7.220;2023-07-20T06:30:07;15.50;99.90
23411;DHT22;11878;51.774;7.220;2023-07-20T06:33:09;15.40;99.90
23411;DHT22;11878;51.774;7.220;2023-07-20T06:36:11;15.40;99.90
23411;DHT22;11878;51.774;7.220;2023-07-20T06:39:13;15.70;99.90
23411;DHT22;11878;51.774;7.220;2023-07-20T06:42:18;15.70;99.90
23411;DHT22;11878;51.774;7.220;2023-07-20T06:45:20;15.70;99.90
23411;DHT22;11878;51.774;7.220;2023-07-20T06:48:22;15.80;99.90
23411;DHT22;11878;51.774;7.220;2023-07-20T06:51:24;15.90;99.90
23411;DHT22;11878;51.774;7.220;2023-07-20T06:54:26;15.70;99.90
23411;DHT22;11878;51.774;7.220;2023-07-20T06:57:28;15.40;99.90
23411;DHT22;11878;51.774;7.220;2023-07-20T07:00:30;15.50;99.90
23411;DHT22;11878;51.774;7.220;2023-07-20T07:03:32;15.40;99.90
23411;DHT22;11878;51.774;7.220;2023-07-20T07:06:39;15.40;99.90
23411;DHT22;11878;51.774;7.220;2023-07-20T07:09:42;15.50;99.90
23411;DHT22;11878;51.774;7.220;2023-07-20T07:12:43;15.70;99.90
23411;DHT22;11878;51.774;7.220;2023-07-20T07:15:45;15.90;99.90
23411;DHT22;11878;51.774;7.220;2023-07-20T07:18:49;16.20;99.90
23411;DHT22;11878;51.774;7.220;2023-07-20T07:21:51;16.10;99.90
23411;DHT22;11878;51.774;7.220;2023-07-20T07:24:53;16.20;99.90
23411;DHT22;11878;51.774;7.220;2023-07-20T07:27:55;16.10;99.90
23411;DHT22;11878;51.774;7.220;2023-07-20T07:30:57;15.90;99.90
23411;DHT22;11878;51.774;7.220;2023-07-20T07:33:59;15.90;99.90
23411;DHT22;11878;51.774;7.220;2023-07-20T07:37:01;15.90;99.90
23411;DHT22;11878;51.774;7.220;2023-07-20T07:40:04;15.80;99.90
23411;DHT22;11878;51.774;7.220;2023-07-20T07:43:07;16.00;99.90
23411;DHT22;11878;51.774;7.220;2023-07-20T07:46:10;16.20;99.90
23411;DHT22;11878;51.774;7.220;2023-07-20T07:49:12;16.30;99.90
23411;DHT22;11878;51.774;7.220;2023-07-20T07:52:14;16.20;99.90
23411;DHT22;11878;51.774;7.220;2023-07-20T07:55:16;16.40;99.90
23411;DHT22;11878;51.774;7.220;2023-07-20T07:58:19;16.40;99.90
23411;DHT22;11878;51.774;7.220;2023-07-20T08:01:21;16.50;99.90
23411;DHT22;11878;51.774;7.220;2023-07-20T08:04:24;16.80;99.90
23411;DHT22;11878;51.774;7.220;2023-07-20T08:07:25;16.70;99.90
23411;DHT22;11878;51.774;7.220;2023-07-20T08:10:27;16.80;99.90
23411;DHT22;11878;51.774;7.220;2023-07-20T08:13:29;16.90;99.90
23411;DHT22;11878;51.774;7.220;2023-07-20T08:16:31;16.80;99.90
23411;DHT22;11878;51.774;7.220;2023-07-20T08:19:33;17.00;99.90
23411;DHT22;11878;51.774;7.220;2023-07-20T08:22:35;17.10;99.90
23411;DHT22;11878;51.774;7.220;2023-07-20T08:25:37;17.10;99.90
23411;DHT22;11878;51.774;7.220;2023-07-20T08:28:44;16.90;99.90
23411;DHT22;11878;51.774;7.220;2023-07-20T08:31:45;16.90;99.90
23411;DHT22;11878;51.774;7.220;2023-07-20T08:34:48;16.70;99.90
23411;DHT22;11878;51.774;7.220;2023-07-20T08:37:50;16.70;99.90
23411;DHT22;11878;51.774;7.220;2023-07-20T08:40:52;16.60;99.90
23411;DHT22;11878;51.774;7.220;2023-07-20T08:43:57;16.60;99.90
23411;DHT22;11878;51.774;7.220;2023-07-20T08:47:00;17.00;99.90
23411;DHT22;11878;51.774;7.220;2023-07-20T08:50:05;17.00;99.90
23411;DHT22;11878;51.774;7.220;2023-07-20T08:53:10;17.20;99.90
23411;DHT22;11878;51.774;7.220;2023-07-20T08:56:14;17.20;99.90
23411;DHT22;11878;51.774;7.220;2023-07-20T08:59:17;17.30;99.90
23411;DHT22;11878;51.774;7.220;2023-07-20T09:02:22;17.60;99.90
23411;DHT22;11878;51.774;7.220;2023-07-20T09:05:26;17.50;99.90
23411;DHT22;11878;51.774;7.220;2023-07-20T09:08:28;17.50;99.90
23411;DHT22;11878;51.774;7.220;2023-07-20T09:11:30;17.90;99.90
23411;DHT22;11878;51.774;7.220;2023-07-20T09:14:31;17.80;99.90
23411;DHT22;11878;51.774;7.220;2023-07-20T09:17:33;17.60;99.90
23411;DHT22;11878;51.774;7.220;2023-07-20T09:20:36;17.60;99.90
23411;DHT22;11878;51.774;7.220;2023-07-20T09:23:38;17.80;99.90
23411;DHT22;11878;51.774;7.220;2023-07-20T09:26:42;18.00;99.90
23411;DHT22;11878;51.774;7.220;2023-07-20T09:29:50;18.20;99.90
23411;DHT22;11878;51.774;7.220;2023-07-20T09:32:52;18.40;99.90
23411;DHT22;11878;51.774;7.220;2023-07-20T09:36:02;18.50;99.90
23411;DHT22;11878;51.774;7.220;2023-07-20T09:39:24;18.40;99.90
23411;DHT22;11878;51.774;7.220;2023-07-20T09:42:29;18.50;99.90
23411;DHT22;11878;51.774;7.220;2023-07-20T09:45:34;18.40;99.90
23411;DHT22;11878;51.774;7.220;2023-07-20T09:48:56;18.60;99.90
23411;DHT22;11878;51.774;7.220;2023-07-20T09:52:01;19.00;99.90
23411;DHT22;11878;51.774;7.220;2023-07-20T09:55:05;19.40;99.90
23411;DHT22;11878;51.774;7.220;2023-07-20T09:58:08;19.10;99.90
23411;DHT22;11878;51.774;7.220;2023-07-20T10:01:12;19.40;99.90
23411;DHT22;11878;51.774;7.220;2023-07-20T10:04:17;19.20;99.90
23411;DHT22;11878;51.774;7.220;2023-07-20T10:07:22;19.60;99.90
23411;DHT22;11878;51.774;7.220;2023-07-20T10:10:24;19.80;99.20
23411;DHT22;11878;51.774;7.220;2023-07-20T10:13:28;20.30;98.00
23411;DHT22;11878;51.774;7.220;2023-07-20T10:16:39;20.60;99.90
23411;DHT22;11878;51.774;7.220;2023-07-20T10:19:53;21.20;99.90
23411;DHT22;11878;51.774;7.220;2023-07-20T10:22:56;21.40;99.90
23411;DHT22;11878;51.774;7.220;2023-07-20T10:25:59;21.00;91.40
23411;DHT22;11878;51.774;7.220;2023-07-20T10:29:02;20.60;97.00
23411;DHT22;11878;51.774;7.220;2023-07-20T10:32:06;21.20;94.50
23411;DHT22;11878;51.774;7.220;2023-07-20T10:35:16;20.60;99.90
23411;DHT22;11878;51.774;7.220;2023-07-20T10:38:18;19.90;95.70
23411;DHT22;11878;51.774;7.220;2023-07-20T10:41:23;20.00;92.60
23411;DHT22;11878;51.774;7.220;2023-07-20T10:44:28;20.60;90.90
23411;DHT22;11878;51.774;7.220;2023-07-20T10:47:45;21.20;92.10
23411;DHT22;11878;51.774;7.220;2023-07-20T10:51:13;21.30;87.60
23411;DHT22;11878;51.774;7.220;2023-07-20T10:57:30;21.80;85.00
23411;DHT22;11878;51.774;7.220;2023-07-20T11:00:33;21.90;96.50
23411;DHT22;11878;51.774;7.220;2023-07-20T11:03:37;22.60;96.30
23411;DHT22;11878;51.774;7.220;2023-07-20T11:06:55;21.70;81.40
23411;DHT22;11878;51.774;7.220;2023-07-20T11:10:15;20.70;93.40
23411;DHT22;11878;51.774;7.220;2023-07-20T11:13:22;20.50;94.20
23411;DHT22;11878;51.774;7.220;2023-07-20T11:16:45;21.20;91.10
23411;DHT22;11878;51.774;7.220;2023-07-20T11:19:55;21.60;87.40
23411;DHT22;11878;51.774;7.220;2023-07-20T11:23:00;21.40;81.60
23411;DHT22;11878;51.774;7.220;2023-07-20T11:26:02;20.90;82.40
23411;DHT22;11878;51.774;7.220;2023-07-20T11:29:05;21.00;93.40
23411;DHT22;11878;51.774;7.220;2023-07-20T11:32:25;20.90;78.70
23411;DHT22;11878;51.774;7.220;2023-07-20T11:35:27;20.80;88.30
23411;DHT22;11878;51.774;7.220;2023-07-20T11:38:29;20.70;88.60
23411;DHT22;11878;51.774;7.220;2023-07-20T11:41:31;20.60;88.00
23411;DHT22;11878;51.774;7.220;2023-07-20T11:44:34;20.60;92.80
23411;DHT22;11878;51.774;7.220;2023-07-20T11:47:40;20.60;84.80
23411;DHT22;11878;51.774;7.220;2023-07-20T11:50:43;20.70;82.30
23411;DHT22;11878;51.774;7.220;2023-07-20T11:53:47;20.50;90.30
23411;DHT22;11878;51.774;7.220;2023-07-20T11:56:49;20.40;80.50
23411;DHT22;11878;51.774;7.220;2023-07-20T12:00:00;20.10;78.80
23411;DHT22;11878;51.774;7.220;2023-07-20T12:03:06;20.20;91.50
23411;DHT22;11878;51.774;7.220;2023-07-20T12:06:10;20.20;74.50
23411;DHT22;11878;51.774;7.220;2023-07-20T12:09:14;20.30;74.50
23411;DHT22;11878;51.774;7.220;2023-07-20T12:12:18;20.10;71.60
23411;DHT22;11878;51.774;7.220;2023-07-20T12:15:25;20.10;71.70
23411;DHT22;11878;51.774;7.220;2023-07-20T12:18:36;20.20;69.50
23411;DHT22;11878;51.774;7.220;2023-07-20T12:21:39;20.20;74.90
23411;DHT22;11878;51.774;7.220;2023-07-20T12:24:41;20.00;82.60
23411;DHT22;11878;51.774;7.220;2023-07-20T12:27:44;20.00;80.20
23411;DHT22;11878;51.774;7.220;2023-07-20T12:30:47;20.20;81.20
23411;DHT22;11878;51.774;7.220;2023-07-20T12:33:54;20.20;78.10
23411;DHT22;11878;51.774;7.220;2023-07-20T12:36:58;20.00;65.90
23411;DHT22;11878;51.774;7.220;2023-07-20T12:40:00;20.40;64.60
23411;DHT22;11878;51.774;7.220;2023-07-20T12:43:02;20.50;72.90
23411;DHT22;11878;51.774;7.220;2023-07-20T12:46:05;20.50;65.60
23411;DHT22;11878;51.774;7.220;2023-07-20T12:49:07;20.50;63.10
23411;DHT22;11878;51.774;7.220;2023-07-20T12:52:09;20.60;65.30
23411;DHT22;11878;51.774;7.220;2023-07-20T12:55:11;20.40;66.90
23411;DHT22;11878;51.774;7.220;2023-07-20T12:58:13;20.50;72.40
23411;DHT22;11878;51.774;7.220;2023-07-20T13:01:15;20.40;75.60
23411;DHT22;11878;51.774;7.220;2023-07-20T13:04:17;20.30;74.40
23411;DHT22;11878;51.774;7.220;2023-07-20T13:07:29;20.40;79.50
23411;DHT22;11878;51.774;7.220;2023-07-20T13:10:35;20.50;71.70
23411;DHT22;11878;51.774;7.220;2023-07-20T13:13:37;20.60;65.00
23411;DHT22;11878;51.774;7.220;2023-07-20T13:16:38;20.80;69.70
23411;DHT22;11878;51.774;7.220;2023-07-20T13:19:40;21.00;69.10
23411;DHT22;11878;51.774;7.220;2023-07-20T13:22:42;21.10;76.20
23411;DHT22;11878;51.774;7.220;2023-07-20T13:25:44;21.10;72.00
23411;DHT22;11878;51.774;7.220;2023-07-20T13:28:45;21.10;65.50
23411;DHT22;11878;51.774;7.220;2023-07-20T13:31:49;20.90;60.90
23411;DHT22;11878;51.774;7.220;2023-07-20T13:34:52;21.00;68.80
23411;DHT22;11878;51.774;7.220;2023-07-20T13:37:54;21.00;67.30
23411;DHT22;11878;51.774;7.220;2023-07-20T13:40:56;20.90;64.00
23411;DHT22;11878;51.774;7.220;2023-07-20T13:43:58;20.80;76.20
23411;DHT22;11878;51.774;7.220;2023-07-20T13:47:00;20.70;70.20
23411;DHT22;11878;51.774;7.220;2023-07-20T13:50:06;20.70;78.10
23411;DHT22;11878;51.774;7.220;2023-07-20T13:53:08;20.60;77.90
23411;DHT22;11878;51.774;7.220;2023-07-20T13:56:13;20.60;70.50
23411;DHT22;11878;51.774;7.220;2023-07-20T13:59:18;20.60;74.50
23411;DHT22;11878;51.774;7.220;2023-07-20T14:02:20;20.80;78.80
23411;DHT22;11878;51.774;7.220;2023-07-20T14:05:25;20.80;83.40
23411;DHT22;11878;51.774;7.220;2023-07-20T14:08:30;21.00;74.90
23411;DHT22;11878;51.774;7.220;2023-07-20T14:11:32;21.00;75.50
23411;DHT22;11878;51.774;7.220;2023-07-20T14:14:36;21.10;72.00
23411;DHT22;11878;51.774;7.220;2023-07-20T14:17:38;21.20;73.50
23411;DHT22;11878;51.774;7.220;2023-07-20T14:20:40;21.00;78.00
23411;DHT22;11878;51.774;7.220;2023-07-20T14:23:45;21.20;78.00
23411;DHT22;11878;51.774;7.220;2023-07-20T14:26:48;21.30;74.20
23411;DHT22;11878;51.774;7.220;2023-07-20T14:29:53;21.50;74.60
23411;DHT22;11878;51.774;7.220;2023-07-20T14:32:54;21.50;65.50
23411;DHT22;11878;51.774;7.220;2023-07-20T14:35:57;21.30;74.30
23411;DHT22;11878;51.774;7.220;2023-07-20T14:38:59;21.30;75.10
23411;DHT22;11878;51.774;7.220;2023-07-20T14:42:01;21.30;71.80
23411;DHT22;11878;51.774;7.220;2023-07-20T14:45:04;21.40;76.00
23411;DHT22;11878;51.774;7.220;2023-07-20T14:48:07;21.30;79.00
23411;DHT22;11878;51.774;7.220;2023-07-20T14:51:09;21.30;72.20
23411;DHT22;11878;51.774;7.220;2023-07-20T14:54:11;21.40;77.80
23411;DHT22;11878;51.774;7.220;2023-07-20T14:57:13;21.60;71.50
23411;DHT22;11878;51.774;7.220;2023-07-20T15:00:17;21.50;73.20
23411;DHT22;11878;51.774;7.220;2023-07-20T15:03:18;21.60;68.60
23411;DHT22;11878;51.774;7.220;2023-07-20T15:06:20;21.50;69.00
23411;DHT22;11878;51.774;7.220;2023-07-20T15:09:22;21.50;71.30
23411;DHT22;11878;51.774;7.220;2023-07-20T15:12:24;21.60;69.70
23411;DHT22;11878;51.774;7.220;2023-07-20T15:15:26;21.60;70.00
23411;DHT22;11878;51.774;7.220;2023-07-20T15:18:28;21.40;69.90
23411;DHT22;11878;51.774;7.220;2023-07-20T15:21:47;21.20;73.00
23411;DHT22;11878;51.774;7.220;2023-07-20T15:24:49;21.00;68.30
23411;DHT22;11878;51.774;7.220;2023-07-20T15:27:51;21.20;71.00
23411;DHT22;11878;51.774;7.220;2023-07-20T15:31:00;21.30;71.50
23411;DHT22;11878;51.774;7.220;2023-07-20T15:34:02;21.50;67.60
23411;DHT22;11878;51.774;7.220;2023-07-20T15:37:04;21.60;71.40
23411;DHT22;11878;51.774;7.220;2023-07-20T15:40:07;21.20;65.30
23411;DHT22;11878;51.774;7.220;2023-07-20T15:43:09;21.10;66.80
23411;DHT22;11878;51.774;7.220;2023-07-20T15:49:22;21.00;68.60
23411;DHT22;11878;51.774;7.220;2023-07-20T15:52:27;21.20;68.10
23411;DHT22;11878;51.774;7.220;2023-07-20T15:55:31;21.30;71.20
23411;DHT22;11878;51.774;7.220;2023-07-20T15:58:33;21.20;68.80
23411;DHT22;11878;51.774;7.220;2023-07-20T16:01:35;21.10;68.20
23411;DHT22;11878;51.774;7.220;2023-07-20T16:04:38;21.00;73.80
23411;DHT22;11878;51.774;7.220;2023-07-20T16:07:41;21.00;73.30
23411;DHT22;11878;51.774;7.220;2023-07-20T16:10:46;21.00;77.90
23411;DHT22;11878;51.774;7.220;2023-07-20T16:13:47;21.00;76.00
23411;DHT22;11878;51.774;7.220;2023-07-20T16:16:49;20.80;72.40
23411;DHT22;11878;51.774;7.220;2023-07-20T16:19:51;20.80;80.00
23411;DHT22;11878;51.774;7.220;2023-07-20T16:22:53;20.70;82.40
23411;DHT22;11878;51.774;7.220;2023-07-20T16:25:55;20.70;73.80
23411;DHT22;11878;51.774;7.220;2023-07-20T16:28:57;20.70;72.80
23411;DHT22;11878;51.774;7.220;2023-07-20T16:32:02;20.90;76.70
23411;DHT22;11878;51.774;7.220;2023-07-20T16:35:07;20.90;75.10
23411;DHT22;11878;51.774;7.220;2023-07-20T16:38:13;21.20;72.00
23411;DHT22;11878;51.774;7.220;2023-07-20T16:41:15;21.20;74.00
23411;DHT22;11878;51.774;7.220;2023-07-20T16:44:37;22.70;91.40
23411;DHT22;11878;51.774;7.220;2023-07-20T16:47:39;22.10;69.00
23411;DHT22;11878;51.774;7.220;2023-07-20T16:50:41;22.60;70.90
23411;DHT22;11878;51.774;7.220;2023-07-20T16:53:43;22.60;70.40
23411;DHT22;11878;51.774;7.220;2023-07-20T16:56:45;22.60;69.20
23411;DHT22;11878;51.774;7.220;2023-07-20T16:59:47;22.00;72.30
23411;DHT22;11878;51.774;7.220;2023-07-20T17:02:49;21.60;76.10
23411;DHT22;11878;51.774;7.220;2023-07-20T17:05:51;21.80;74.80
23411;DHT22;11878;51.774;7.220;2023-07-20T17:08:53;21.30;70.30
23411;DHT22;11878;51.774;7.220;2023-07-20T17:11:55;21.40;74.70
23411;DHT22;11878;51.774;7.220;2023-07-20T17:14:57;21.10;75.80
23411;DHT22;11878;51.774;7.220;2023-07-20T17:17:59;21.10;75.40
23411;DHT22;11878;51.774;7.220;2023-07-20T17:21:01;21.00;84.00
23411;DHT22;11878;51.774;7.220;2023-07-20T17:24:03;20.90;84.50
23411;DHT22;11878;51.774;7.220;2023-07-20T17:27:05;20.70;91.40
23411;DHT22;11878;51.774;7.220;2023-07-20T17:30:11;20.90;81.80
23411;DHT22;11878;51.774;7.220;2023-07-20T17:33:13;22.00;77.50
23411;DHT22;11878;51.774;7.220;2023-07-20T17:36:16;21.50;71.60
23411;DHT22;11878;51.774;7.220;2023-07-20T17:39:22;21.20;70.20
23411;DHT22;11878;51.774;7.220;2023-07-20T17:42:44;20.90;75.30
23411;DHT22;11878;51.774;7.220;2023-07-20T17:45:49;20.60;87.10
23411;DHT22;11878;51.774;7.220;2023-07-20T17:48:51;20.50;81.90
23411;DHT22;11878;51.774;7.220;2023-07-20T17:51:53;20.40;95.80
23411;DHT22;11878;51.774;7.220;2023-07-20T17:54:55;20.30;94.20
23411;DHT22;11878;51.774;7.220;2023-07-20T17:57:57;20.20;95.90
23411;DHT22;11878;51.774;7.220;2023-07-20T18:00:59;20.20;94.10
23411;DHT22;11878;51.774;7.220;2023-07-20T18:04:01;20.10;94.90
23411;DHT22;11878;51.774;7.220;2023-07-20T18:07:03;20.20;94.30
23411;DHT22;11878;51.774;7.220;2023-07-20T18:10:06;20.10;96.90
23411;DHT22;11878;51.774;7.220;2023-07-20T18:13:08;20.10;97.60
23411;DHT22;11878;51.774;7.220;2023-07-20T18:16:10;20.00;94.70
23411;DHT22;11878;51.774;7.220;2023-07-20T18:19:12;20.00;93.80
23411;DHT22;11878;51.774;7.220;2023-07-20T18:22:15;20.00;95.10
23411;DHT22;11878;51.774;7.220;2023-07-20T18:25:17;20.00;94.20
23411;DHT22;11878;51.774;7.220;2023-07-20T18:28:19;19.90;99.50
23411;DHT22;11878;51.774;7.220;2023-07-20T18:31:20;19.80;99.20
23411;DHT22;11878;51.774;7.220;2023-07-20T18:34:24;19.80;99.90
23411;DHT22;11878;51.774;7.220;2023-07-20T18:37:26;19.70;97.80
23411;DHT22;11878;51.774;7.220;2023-07-20T18:40:27;19.70;99.00
23411;DHT22;11878;51.774;7.220;2023-07-20T18:43:29;19.70;99.90
23411;DHT22;11878;51.774;7.220;2023-07-20T18:46:31;19.70;99.90
23411;DHT22;11878;51.774;7.220;2023-07-20T18:49:33;19.60;99.20
23411;DHT22;11878;51.774;7.220;2023-07-20T18:52:35;19.50;99.40
23411;DHT22;11878;51.774;7.220;2023-07-20T18:55:37;19.60;99.90
23411;DHT22;11878;51.774;7.220;2023-07-20T18:58:40;19.60;99.30
23411;DHT22;11878;51.774;7.220;2023-07-20T19:01:42;19.40;99.90
23411;DHT22;11878;51.774;7.220;2023-07-20T19:04:44;19.40;99.90
23411;DHT22;11878;51.774;7.220;2023-07-20T19:07:46;19.50;98.30
23411;DHT22;11878;51.774;7.220;2023-07-20T19:10:48;19.40;99.90
23411;DHT22;11878;51.774;7.220;2023-07-20T19:13:53;19.40;99.90
23411;DHT22;11878;51.774;7.220;2023-07-20T19:16:54;19.40;99.90
23411;DHT22;11878;51.774;7.220;2023-07-20T19:19:57;19.30;99.90
23411;DHT22;11878;51.774;7.220;2023-07-20T19:22:58;19.10;99.90
23411;DHT22;11878;51.774;7.220;2023-07-20T19:26:07;19.10;99.90
23411;DHT22;11878;51.774;7.220;2023-07-20T19:29:09;19.40;99.90
23411;DHT22;11878;51.774;7.220;2023-07-20T19:32:12;19.00;99.90
23411;DHT22;11878;51.774;7.220;2023-07-20T19:35:14;18.90;99.90